This is the latest recevied weather packets stored in our database for station/object KG5RGN-13. If no packets are shown the sender has not sent any weather packets the latest 1 day(s).
| Time | Temp. | Humidity | Pressure | Rain* | Wind** | Luminosity | Snow |
|---|---|---|---|---|---|---|---|
| 1778051258 | 6.67° C | 100% | 0 hPa | 0 mm | 0 m/s | - | - |
| 1778050958 | 6.67° C | 100% | 0 hPa | 0 mm | 0 m/s | - | - |
| 1778050658 | 7.78° C | 100% | 0 hPa | 0 mm | 1.34 m/s, 156° | - | - |
| 1778050358 | 7.22° C | 100% | 0 hPa | 0 mm | 0 m/s | - | - |
| 1778050058 | 7.22° C | 100% | 0 hPa | 0 mm | 0.89 m/s, 130° | - | - |
| 1778049758 | 7.78° C | 100% | 0 hPa | 0 mm | 0 m/s | - | - |
| 1778049458 | 7.22° C | 100% | 0 hPa | 0 mm | 0 m/s | - | - |
| 1778049158 | 7.78° C | 100% | 0 hPa | 0 mm | 0 m/s | - | - |
| 1778048858 | 7.78° C | 100% | 0 hPa | 0 mm | 0 m/s | - | - |
| 1778048558 | 8.33° C | 100% | 0 hPa | 0 mm | 0.89 m/s, 196° | - | - |
| 1778048258 | 8.33° C | 100% | 0 hPa | 0 mm | 2.24 m/s, 184° | - | - |
| 1778047958 | 7.22° C | 100% | 0 hPa | 0 mm | 1.79 m/s, 185° | - | - |
| 1778047658 | 8.33° C | 100% | 0 hPa | 0 mm | 2.24 m/s, 175° | - | - |
| 1778047358 | 8.33° C | 100% | 0 hPa | 0 mm | 1.34 m/s, 157° | - | - |
| 1778047058 | 8.33° C | 100% | 0 hPa | 0 mm | 1.79 m/s, 154° | - | - |
| 1778046758 | 8.33° C | 100% | 0 hPa | 0 mm | 1.34 m/s, 84° | - | - |
| 1778046458 | 8.89° C | 100% | 0 hPa | 0 mm | 0.89 m/s, 101° | - | - |
| 1778046158 | 8.89° C | 100% | 0 hPa | 0 mm | 1.34 m/s, 202° | - | - |
| 1778045858 | 9.44° C | 100% | 0 hPa | 0 mm | 0 m/s | - | - |
| 1778045558 | 8.89° C | 100% | 0 hPa | 0 mm | 0 m/s | - | - |
| 1778045258 | 9.44° C | 100% | 0 hPa | 0 mm | 3.13 m/s, 253° | - | - |
| 1778044958 | 8.89° C | 100% | 0 hPa | 0 mm | 0 m/s | - | - |
| 1778044659 | 8.89° C | 100% | 0 hPa | 0 mm | 0.89 m/s, 161° | - | - |
| 1778044359 | 8.89° C | 100% | 0 hPa | 0 mm | 0.89 m/s, 147° | - | - |
| 1778044059 | 8.89° C | 100% | 0 hPa | 0 mm | 0 m/s | - | - |
* Rain latest hour (hover to see other rain measurements)
** Current wind speed in m/s (hover to see current wind gust speed)